map of SNY home
SNY - Airport
Location
City:  Sidney, Nebraska, United States
Name:Sidney Municipal/Lloyd W Carr Field
ICAO:KSNY
IATA:SNY
FAA LID:SNY

Details
Type:Airport (Airfield)
Use:Public/Civil
Latitude:4105'59"N (41.099806)
Longitude:10259'06"W (-102.984971)
Datum:WGS 1984
Elevation:4313 ft (1315 m)
Variation:7.13E (WMM2015v2 magnetic declination)
-0.09 annual change
Runways:2
Longest:6600 × 100 ft (2012 × 30.5 m), paved

Time
Time Zone:UTC-6 (DST-5)
Local Time:

Weather
METAR:KSNY 041353Z AUTO 02007KT 6SM BR OVC005 M11/M13 A2984 RMK AO2 SLP146 T11111128
TAF:KSNY 041121Z 0412/0512 05008KT 5SM BR OVC006
TEMPO 0412/0415 2SM BR OVC002
FM041500 13010KT P6SM SCT040
FM041900 13015KT P6SM BKN120

Related Locations
Nearby:
Farthest:RRG: 10757 mi / 17312 km
Plaine Corail [Sir Gatan Duval Airport (Plaine Corail Airport)], Rodrigues Island, MU

Find:

   beyond  
but within

Other Information
Maps:
NOTAMs:
Links:
Sources:

  
  • flag of United States
  • flag of Nebraska
  

Sectional Chart

Flight Planning
at skyvector.com

Satellite Image

Google Maps Satellite view

 

Copyright © 2004-2019 Karl L. Swartz. All rights reserved.
The Great Circle Mapper name and logo are trademarks of the Great Circle Mapper.
All other trademarks mentioned herein belong to their respective owners.
Please see credits for attibutions and further copyright information.

  Follow gcmap on Facebook Follow gcmap on Twitter GCmap on LinkedIn

hCard Microformat

Geo Microformat